Time;durP1;ratioP1;P1;durP2;ratioP2;P2;SDS_P1;SDS_P2;PMS_P1;PMS_P2;Temp;Humidity;BMP_temperature;BMP_pressure;BME280_temperature;BME280_humidity;BME280_pressure;Samples;Min_cycle;Max_cycle;Signal;HPM_P1;HPM_P2
2021/03/25 00:00:25;;;;;;;15.30;6.53;;;4.20;56.50;;;;;;4284947;33;20544;-37
2021/03/25 00:02:53;;;;;;;21.90;10.67;;;4.20;56.50;;;;;;4285063;33;20180;-37
2021/03/25 00:05:21;;;;;;;24.23;9.77;;;4.10;56.40;;;;;;4285440;33;20068;-37
2021/03/25 00:07:47;;;;;;;26.97;12.20;;;4.10;56.50;;;;;;4296993;33;20176;-37
2021/03/25 00:10:18;;;;;;;17.90;7.30;;;4.00;56.60;;;;;;4308759;33;20101;-36
2021/03/25 00:12:45;;;;;;;15.33;6.53;;;4.00;56.70;;;;;;4325644;33;20091;-37
2021/03/25 00:15:12;;;;;;;21.73;10.27;;;3.90;56.70;;;;;;4325676;33;20514;-37
2021/03/25 00:17:39;;;;;;;13.33;6.57;;;3.90;56.70;;;;;;4325970;33;20070;-36
2021/03/25 00:20:08;;;;;;;14.43;6.77;;;3.90;56.70;;;;;;4325911;33;20090;-36
2021/03/25 00:22:35;;;;;;;16.40;6.53;;;3.90;56.60;;;;;;4326111;33;20152;-37
2021/03/25 00:25:03;;;;;;;20.10;8.97;;;3.90;56.60;;;;;;4325830;33;20068;-36
2021/03/25 00:27:29;;;;;;;10.47;4.00;;;3.80;56.50;;;;;;4325844;33;20156;-37
2021/03/25 00:29:56;;;;;;;15.90;7.57;;;3.90;56.50;;;;;;4326019;33;20090;-37
2021/03/25 00:32:23;;;;;;;26.17;10.70;;;3.90;57.00;;;;;;4325942;33;20087;-37
2021/03/25 00:34:49;;;;;;;28.27;11.47;;;3.90;56.20;;;;;;4330746;33;20071;-46
2021/03/25 00:37:16;;;;;;;3.60;2.57;;;3.90;56.10;;;;;;4343122;32;20081;-35
2021/03/25 00:39:42;;;;;;;15.43;6.10;;;4.00;55.90;;;;;;4343036;33;20075;-37
2021/03/25 00:42:09;;;;;;;10.87;6.57;;;4.00;55.80;;;;;;4310745;33;20152;-36
2021/03/25 00:44:35;;;;;;;15.43;7.10;;;4.00;55.90;;;;;;4310911;33;20092;-37
2021/03/25 00:47:02;;;;;;;9.20;4.13;;;4.00;55.80;;;;;;4311150;33;20507;-37
2021/03/25 00:49:31;;;;;;;15.27;7.47;;;4.00;55.80;;;;;;4325795;33;20075;-37
2021/03/25 00:51:57;;;;;;;18.73;8.43;;;3.90;55.80;;;;;;4326040;33;20603;-37
2021/03/25 00:54:24;;;;;;;21.20;10.30;;;3.90;55.70;;;;;;4298903;33;20167;-37
2021/03/25 00:56:50;;;;;;;21.40;9.30;;;3.80;55.60;;;;;;4311278;33;20099;-36
2021/03/25 00:59:17;;;;;;;11.17;4.87;;;3.80;55.70;;;;;;4298916;33;20071;-37
2021/03/25 01:01:44;;;;;;;19.07;7.40;;;3.70;55.90;;;;;;4310962;33;20163;-37
2021/03/25 01:04:10;;;;;;;19.00;7.20;;;3.70;55.80;;;;;;4298915;33;20082;-37
2021/03/25 01:06:37;;;;;;;9.80;5.07;;;3.60;55.90;;;;;;4310980;33;20087;-37
2021/03/25 01:09:34;;;;;;;6.67;3.90;;;3.60;56.10;;;;;;4267180;33;20072;-37
2021/03/25 01:12:00;;;;;;;10.03;5.37;;;3.60;56.10;;;;;;4257991;33;20154;-36
2021/03/25 01:14:27;;;;;;;19.97;8.43;;;3.50;55.90;;;;;;4269987;33;20083;-38
2021/03/25 01:16:54;;;;;;;18.27;6.17;;;3.50;55.70;;;;;;4258941;33;20613;-37
2021/03/25 01:19:24;;;;;;;33.27;11.57;;;3.50;55.60;;;;;;4257935;33;20081;-37
2021/03/25 01:21:52;;;;;;;22.17;9.80;;;3.40;55.50;;;;;;4282070;33;20539;-37
2021/03/25 01:24:18;;;;;;;27.00;9.60;;;3.40;55.40;;;;;;4272065;33;20162;-37
2021/03/25 01:26:45;;;;;;;22.17;8.73;;;3.30;55.30;;;;;;4315536;33;20082;-36
2021/03/25 01:29:11;;;;;;;22.40;10.17;;;3.20;55.40;;;;;;4316243;33;20096;-37
2021/03/25 01:31:38;;;;;;;21.33;8.40;;;3.20;55.60;;;;;;4328030;33;20058;-37
2021/03/25 01:34:06;;;;;;;23.23;8.90;;;3.10;55.60;;;;;;4298621;33;20083;-37
2021/03/25 01:36:33;;;;;;;10.90;6.47;;;3.10;55.80;;;;;;4286533;33;20087;-37
2021/03/25 01:38:59;;;;;;;4.70;2.47;;;3.00;55.70;;;;;;4298668;33;20064;-37
2021/03/25 01:41:34;;;;;;;10.03;3.63;;;3.00;55.60;;;;;;4310434;33;20067;-37
2021/03/25 01:44:01;;;;;;;7.12;4.10;;;3.00;55.60;;;;;;4286948;33;20626;-37
2021/03/25 01:46:33;;;;;;;11.13;3.93;;;3.00;55.50;;;;;;4300914;33;20059;-38
2021/03/25 01:49:08;;;;;;;11.53;5.93;;;3.00;55.40;;;;;;4312889;33;20138;-36
2021/03/25 01:51:59;;;;;;;26.60;9.00;;;3.00;55.30;;;;;;4313310;33;20105;-38
2021/03/25 01:55:02;;;;;;;23.53;11.93;;;3.00;55.20;;;;;;4313108;33;20536;-37
2021/03/25 01:57:58;;;;;;;27.43;11.73;;;2.90;55.10;;;;;;4293308;33;20562;-35
2021/03/25 02:00:29;;;;;;;24.37;10.77;;;2.80;55.10;;;;;;4313308;33;20154;-38
2021/03/25 02:03:16;;;;;;;20.63;6.77;;;2.80;55.90;;;;;;4313304;33;20512;-37
2021/03/25 02:06:12;;;;;;;5.43;3.27;;;2.70;55.30;;;;;;4313545;33;20234;-38
2021/03/25 02:08:53;;;;;;;20.47;8.67;;;2.70;55.50;;;;;;4285209;33;20144;-38
2021/03/25 02:12:07;;;;;;;23.33;8.67;;;2.70;55.50;;;;;;4276174;33;20550;-37
2021/03/25 02:15:29;;;;;;;9.83;2.63;;;2.70;55.40;;;;;;4243697;33;20059;-37
2021/03/25 02:18:30;;;;;;;7.13;4.77;;;2.70;55.10;;;;;;4247642;33;20685;-35
2021/03/25 02:21:23;;;;;;;11.53;4.30;;;2.60;54.90;;;;;;4242221;33;20069;-36
2021/03/25 02:24:56;;;;;;;7.73;4.40;;;2.60;54.90;;;;;;4240948;33;20168;-36
2021/03/25 02:27:48;;;;;;;6.87;3.10;;;2.60;54.90;;;;;;4171329;34;20075;-38
2021/03/25 02:30:36;;;;;;;9.03;4.67;;;2.50;54.70;;;;;;4160127;34;20087;-36
2021/03/25 02:33:04;;;;;;;11.60;5.20;;;2.50;54.70;;;;;;4161950;34;20059;-35
2021/03/25 02:36:04;;;;;;;5.00;1.63;;;2.50;54.70;;;;;;4160103;34;20150;-37
2021/03/25 02:38:57;;;;;;;5.03;3.33;;;2.40;54.70;;;;;;4130556;34;20121;-36
2021/03/25 02:41:31;;;;;;;17.93;8.27;;;2.40;54.80;;;;;;4119352;34;20078;-37
2021/03/25 02:44:11;;;;;;;12.23;6.10;;;2.40;54.70;;;;;;4119930;34;20064;-38
2021/03/25 02:46:47;;;;;;;18.40;7.03;;;2.40;54.70;;;;;;4135534;34;20079;-39
2021/03/25 02:49:15;;;;;;;20.27;7.50;;;2.40;54.60;;;;;;4198999;33;20309;-38
2021/03/25 02:51:57;;;;;;;4.10;2.20;;;2.40;54.60;;;;;;4200537;33;20077;-37
2021/03/25 02:54:24;;;;;;;9.37;2.67;;;2.40;54.60;;;;;;4212728;33;20069;-37
2021/03/25 02:57:04;;;;;;;14.80;4.77;;;2.40;54.50;;;;;;4212335;33;20567;-37
2021/03/25 02:59:38;;;;;;;10.20;5.40;;;2.40;54.50;;;;;;4238601;33;20554;-36
2021/03/25 03:02:37;;;;;;;15.33;7.77;;;2.40;54.60;;;;;;4240795;33;20144;-37
2021/03/25 03:05:19;;;;;;;21.03;8.23;;;2.40;54.70;;;;;;4285354;33;20274;-35
2021/03/25 03:08:13;;;;;;;18.57;6.13;;;2.30;54.80;;;;;;4286563;33;20060;-37
2021/03/25 03:10:58;;;;;;;14.33;7.63;;;2.30;55.00;;;;;;4272212;33;20098;-36
2021/03/25 03:13:25;;;;;;;8.18;4.68;;;2.40;55.30;;;;;;4272035;33;20087;-36
2021/03/25 03:16:04;;;;;;;12.43;5.03;;;2.40;55.30;;;;;;4310365;33;20079;-37
2021/03/25 03:18:40;;;;;;;9.70;4.83;;;2.40;55.40;;;;;;4315160;33;20062;-37
2021/03/25 03:21:24;;;;;;;22.77;9.77;;;2.50;55.60;;;;;;4291675;33;20083;-36
2021/03/25 03:23:51;;;;;;;10.50;5.90;;;2.50;55.60;;;;;;4302834;33;20072;-38
2021/03/25 03:26:23;;;;;;;4.50;2.87;;;2.60;55.60;;;;;;4312271;33;20068;-37
2021/03/25 03:28:53;;;;;;;1.40;1.27;;;2.70;55.70;;;;;;4300764;33;20085;-38
2021/03/25 03:31:25;;;;;;;12.17;3.93;;;2.80;55.80;;;;;;4299915;33;20089;-37
2021/03/25 03:34:02;;;;;;;18.03;7.73;;;2.90;55.90;;;;;;4300284;33;20097;-37
2021/03/25 03:36:29;;;;;;;10.63;5.97;;;3.00;56.00;;;;;;4312456;33;20068;-37
2021/03/25 03:39:11;;;;;;;21.83;10.27;;;3.20;56.00;;;;;;4300140;33;20621;-36
2021/03/25 03:41:54;;;;;;;16.63;7.47;;;3.30;55.90;;;;;;4273092;33;20088;-37
2021/03/25 03:44:24;;;;;;;21.97;10.30;;;3.40;55.80;;;;;;4273153;33;20166;-37
2021/03/25 03:46:51;;;;;;;25.37;10.83;;;3.50;55.60;;;;;;4297304;33;20492;-37
2021/03/25 03:49:32;;;;;;;26.17;10.27;;;3.60;55.20;;;;;;4284336;33;20090;-37
2021/03/25 03:52:11;;;;;;;27.13;13.17;;;3.70;54.90;;;;;;4286331;33;20091;-37
2021/03/25 03:54:38;;;;;;;29.07;12.43;;;3.80;54.70;;;;;;4314815;33;20055;-37
2021/03/25 03:57:20;;;;;;;20.80;7.83;;;3.90;54.60;;;;;;4328721;33;20106;-37
2021/03/25 03:59:53;;;;;;;18.67;8.37;;;4.00;54.60;;;;;;4328923;33;20531;-36
2021/03/25 04:02:39;;;;;;;17.57;9.13;;;4.00;54.20;;;;;;4341079;33;20155;-37
2021/03/25 04:05:20;;;;;;;16.30;8.60;;;4.20;54.20;;;;;;4329274;33;20074;-37
2021/03/25 04:07:51;;;;;;;10.90;4.70;;;4.20;54.00;;;;;;4299971;33;20090;-37
2021/03/25 04:10:28;;;;;;;8.60;4.40;;;4.40;54.10;;;;;;4298864;33;20523;-38
2021/03/25 04:12:57;;;;;;;11.90;6.70;;;4.60;54.10;;;;;;4296847;33;20079;-38
2021/03/25 04:15:29;;;;;;;11.60;5.17;;;4.80;54.20;;;;;;4313928;33;20067;-36
2021/03/25 04:18:24;;;;;;;23.03;12.00;;;5.00;54.30;;;;;;4298859;33;20507;-36
2021/03/25 04:21:21;;;;;;;18.62;9.98;;;5.30;53.80;;;;;;4286904;33;20518;-38
2021/03/25 04:23:49;;;;;;;8.90;5.13;;;5.50;53.30;;;;;;4309162;33;20066;-39
2021/03/25 04:26:25;;;;;;;12.97;6.37;;;5.80;52.90;;;;;;4299487;33;20130;-37
2021/03/25 04:29:02;;;;;;;27.27;13.67;;;6.00;52.30;;;;;;4299861;33;20151;-37
2021/03/25 04:31:30;;;;;;;11.13;4.07;;;6.20;51.60;;;;;;4287800;33;20620;-37
2021/03/25 04:33:56;;;;;;;11.97;5.03;;;6.40;51.90;;;;;;4284349;33;20520;-37
2021/03/25 04:36:25;;;;;;;17.73;8.77;;;6.70;51.70;;;;;;4284579;33;20084;-37
2021/03/25 04:38:51;;;;;;;12.03;6.10;;;6.90;50.80;;;;;;4267214;33;20053;-37
2021/03/25 04:41:18;;;;;;;3.60;1.97;;;7.10;50.70;;;;;;4244280;33;20091;-38
2021/03/25 04:43:46;;;;;;;10.17;4.97;;;7.30;50.00;;;;;;4256000;33;20072;-37
2021/03/25 04:46:55;;;;;;;21.30;7.07;;;7.40;49.20;;;;;;4268259;33;20147;-37
2021/03/25 04:49:38;;;;;;;9.47;4.13;;;7.50;48.90;;;;;;4269601;33;20529;-35
2021/03/25 04:52:10;;;;;;;6.67;1.93;;;7.70;48.50;;;;;;4260319;33;20079;-34
2021/03/25 04:54:38;;;;;;;14.30;7.47;;;7.90;47.90;;;;;;4278291;33;20102;-35
2021/03/25 04:57:27;;;;;;;7.00;1.57;;;8.10;47.80;;;;;;4313714;33;20075;-34
2021/03/25 04:59:56;;;;;;;15.47;6.73;;;8.30;47.70;;;;;;4326835;33;20507;-35
2021/03/25 05:02:23;;;;;;;19.93;10.23;;;8.50;47.20;;;;;;4303644;33;20067;-35
2021/03/25 05:04:53;;;;;;;24.03;11.53;;;8.70;46.80;;;;;;4335000;33;20555;-35
2021/03/25 05:07:27;;;;;;;25.90;13.47;;;9.00;46.50;;;;;;4331204;33;20097;-36
2021/03/25 05:09:54;;;;;;;22.60;10.67;;;9.30;45.80;;;;;;4331774;33;20086;-35
2021/03/25 05:12:21;;;;;;;19.58;9.00;;;9.50;45.40;;;;;;4306308;33;20082;-35
2021/03/25 05:14:49;;;;;;;17.00;9.30;;;9.80;45.00;;;;;;4318622;33;20160;-35
2021/03/25 05:17:46;;;;;;;5.07;2.40;;;10.00;43.50;;;;;;4317994;33;20067;-35
2021/03/25 05:20:23;;;;;;;2.80;2.17;;;10.30;43.00;;;;;;4322290;33;20063;-35
2021/03/25 05:23:42;;;;;;;7.97;3.62;;;10.40;41.20;;;;;;4331216;33;20549;-36
2021/03/25 05:26:28;;;;;;;4.47;3.30;;;10.50;40.70;;;;;;4329291;33;20258;-39
2021/03/25 05:29:00;;;;;;;10.52;5.72;;;10.70;40.00;;;;;;4319740;33;20081;-39
2021/03/25 05:31:28;;;;;;;5.95;4.53;;;10.90;38.30;;;;;;4315974;33;20532;-39
2021/03/25 05:33:58;;;;;;;6.72;3.30;;;11.00;38.80;;;;;;4303851;33;20150;-38
2021/03/25 05:36:24;;;;;;;11.43;4.82;;;11.10;38.30;;;;;;4316376;33;20055;-38
2021/03/25 05:38:54;;;;;;;7.82;4.18;;;11.10;37.80;;;;;;4316041;33;20079;-40
2021/03/25 05:41:33;;;;;;;9.93;5.05;;;11.20;37.20;;;;;;4301306;33;20072;-39
2021/03/25 05:44:26;;;;;;;15.38;6.07;;;11.20;37.10;;;;;;4301940;33;20074;-38
2021/03/25 05:47:27;;;;;;;8.43;3.40;;;11.20;36.70;;;;;;4286494;33;20505;-39
2021/03/25 05:50:11;;;;;;;16.45;7.10;;;11.30;36.80;;;;;;4284066;33;20089;-39
2021/03/25 05:53:19;;;;;;;13.20;5.90;;;11.30;36.60;;;;;;4284224;33;20289;-39
2021/03/25 05:56:19;;;;;;;11.55;6.22;;;11.20;36.40;;;;;;4284124;33;20198;-39
2021/03/25 05:59:01;;;;;;;14.63;7.45;;;11.20;36.70;;;;;;4284071;33;20095;-38
2021/03/25 06:02:00;;;;;;;7.72;3.15;;;11.10;36.80;;;;;;4282582;33;20088;-40
2021/03/25 06:04:34;;;;;;;12.52;6.37;;;11.10;37.20;;;;;;4283876;33;20080;-40
2021/03/25 06:07:16;;;;;;;3.00;1.80;;;11.10;37.20;;;;;;4295837;33;20101;-40
2021/03/25 06:10:11;;;;;;;23.98;10.27;;;11.20;37.40;;;;;;4315868;33;20318;-39
2021/03/25 06:13:04;;;;;;;41.43;21.70;;;11.30;37.30;;;;;;4306814;33;20059;-40
2021/03/25 06:16:23;;;;;;;31.75;14.23;;;11.50;37.70;;;;;;4315078;33;20162;-40
2021/03/25 06:19:17;;;;;;;24.05;10.30;;;11.90;38.30;;;;;;4326991;33;20060;-40
2021/03/25 06:21:56;;;;;;;7.97;4.05;;;12.20;37.20;;;;;;4317032;33;20075;-40
2021/03/25 06:24:53;;;;;;;25.25;14.02;;;12.40;37.00;;;;;;4335776;33;20155;-40
2021/03/25 06:27:30;;;;;;;21.33;10.35;;;12.50;35.80;;;;;;4341625;33;20523;-40
2021/03/25 06:30:09;;;;;;;6.85;1.77;;;12.60;35.70;;;;;;4342312;33;20062;-40
2021/03/25 06:32:49;;;;;;;25.85;11.80;;;12.60;35.80;;;;;;4330095;33;20086;-40
2021/03/25 06:35:47;;;;;;;7.30;4.10;;;12.70;35.70;;;;;;4330179;33;20179;-40
2021/03/25 06:38:24;;;;;;;28.38;12.55;;;12.60;35.60;;;;;;4325894;33;20078;-40
2021/03/25 06:41:04;;;;;;;20.33;8.23;;;12.70;35.60;;;;;;4330030;33;20140;-40
2021/03/25 06:43:40;;;;;;;27.60;15.27;;;12.70;35.60;;;;;;4341734;33;20070;-40
2021/03/25 06:46:21;;;;;;;7.25;4.50;;;12.80;35.10;;;;;;4329599;33;20148;-41
2021/03/25 06:49:05;;;;;;;10.27;4.45;;;12.80;35.20;;;;;;4330012;33;20514;-41
2021/03/25 06:51:34;;;;;;;19.12;10.75;;;13.00;35.00;;;;;;4318552;33;20098;-40
2021/03/25 06:54:24;;;;;;;24.48;12.48;;;13.10;34.20;;;;;;4341924;33;20151;-40
2021/03/25 06:56:52;;;;;;;30.08;15.77;;;13.10;34.50;;;;;;4329664;33;20079;-41
2021/03/25 06:59:34;;;;;;;20.15;9.25;;;13.20;35.20;;;;;;4343839;33;20090;-41
2021/03/25 07:02:09;;;;;;;24.00;5.15;;;13.20;34.90;;;;;;4343363;33;20473;-40
2021/03/25 07:04:42;;;;;;;14.00;5.50;;;13.20;34.50;;;;;;4344216;33;20066;-40
2021/03/25 07:07:21;;;;;;;14.15;7.32;;;13.20;34.10;;;;;;4342954;33;20082;-42
2021/03/25 07:09:48;;;;;;;12.80;6.47;;;13.30;33.80;;;;;;4342904;33;20067;-41
2021/03/25 07:12:31;;;;;;;15.18;7.28;;;13.40;33.10;;;;;;4342510;33;20620;-42
2021/03/25 07:14:58;;;;;;;12.88;5.60;;;13.60;33.10;;;;;;4342512;33;20154;-42
2021/03/25 07:17:41;;;;;;;17.80;8.07;;;13.80;32.40;;;;;;4330102;33;20063;-41
2021/03/25 07:20:31;;;;;;;15.50;8.75;;;13.90;32.60;;;;;;4330497;33;20118;-42
2021/03/25 07:23:06;;;;;;;18.55;9.07;;;14.00;32.00;;;;;;4343367;32;20144;-39
2021/03/25 07:25:42;;;;;;;12.27;7.85;;;14.10;31.90;;;;;;4344132;32;20055;-41
2021/03/25 07:28:17;;;;;;;15.27;6.82;;;14.30;31.80;;;;;;4342024;33;20189;-40
2021/03/25 07:30:51;;;;;;;5.25;2.00;;;14.40;31.10;;;;;;4342563;33;20073;-41
2021/03/25 07:33:22;;;;;;;9.32;5.25;;;14.50;31.10;;;;;;4330266;33;20479;-40
2021/03/25 07:36:13;;;;;;;12.07;5.12;;;14.50;30.40;;;;;;4317338;33;20176;-41
2021/03/25 07:38:41;;;;;;;8.32;4.57;;;14.50;30.20;;;;;;4323507;33;20166;-41
2021/03/25 07:41:23;;;;;;;9.98;4.87;;;14.40;30.60;;;;;;4317167;33;20062;-41
2021/03/25 07:44:06;;;;;;;10.15;5.45;;;14.40;29.40;;;;;;4341704;33;20184;-41
2021/03/25 07:47:20;;;;;;;9.93;3.85;;;14.40;29.60;;;;;;4328975;33;20067;-41
2021/03/25 07:49:46;;;;;;;9.43;5.15;;;14.40;29.30;;;;;;4328285;33;20562;-41
2021/03/25 07:52:31;;;;;;;6.95;4.35;;;14.50;29.10;;;;;;4340855;33;20055;-39
2021/03/25 07:55:18;;;;;;;9.07;3.73;;;14.60;29.10;;;;;;4340918;33;20182;-41
2021/03/25 07:57:46;;;;;;;10.23;5.12;;;14.60;29.10;;;;;;4341364;33;20144;-39
2021/03/25 08:00:19;;;;;;;7.97;5.32;;;14.70;28.70;;;;;;4340604;33;20436;-38
2021/03/25 08:02:45;;;;;;;9.20;3.70;;;14.80;29.50;;;;;;4341290;33;20083;-41
2021/03/25 08:05:29;;;;;;;7.62;4.18;;;14.70;29.00;;;;;;4328455;33;20498;-41
2021/03/25 08:08:05;;;;;;;6.80;3.55;;;14.70;28.80;;;;;;4340815;33;20205;-41
2021/03/25 08:10:36;;;;;;;6.95;4.07;;;14.80;28.70;;;;;;4328701;33;20660;-39
2021/03/25 08:13:25;;;;;;;7.07;4.05;;;14.70;28.30;;;;;;4332539;33;20070;-41
2021/03/25 08:16:06;;;;;;;5.82;2.87;;;14.70;28.20;;;;;;4341887;33;20074;-41
2021/03/25 08:19:17;;;;;;;7.20;4.55;;;14.70;28.50;;;;;;4341685;33;20085;-42
2021/03/25 08:22:29;;;;;;;7.12;3.55;;;14.70;28.90;;;;;;4342854;32;20105;-42
2021/03/25 08:25:19;;;;;;;8.05;4.20;;;14.70;28.50;;;;;;4343278;33;20474;-40
2021/03/25 08:27:59;;;;;;;10.23;4.57;;;14.70;28.50;;;;;;4343229;32;20544;-41
2021/03/25 08:30:32;;;;;;;5.07;2.83;;;14.70;28.10;;;;;;4341792;33;20436;-40
2021/03/25 08:33:33;;;;;;;6.45;3.22;;;14.80;27.90;;;;;;4342976;32;20475;-42
2021/03/25 08:36:20;;;;;;;4.00;2.37;;;14.90;28.00;;;;;;4344490;33;20055;-41
2021/03/25 08:39:34;;;;;;;6.43;2.53;;;14.90;28.70;;;;;;4346301;32;20514;-41
2021/03/25 08:42:11;;;;;;;5.30;3.50;;;14.90;27.90;;;;;;4345100;33;20181;-42
2021/03/25 08:45:01;;;;;;;8.68;3.97;;;15.00;27.90;;;;;;4344943;33;20070;-42
2021/03/25 08:47:42;;;;;;;8.77;4.60;;;15.10;27.70;;;;;;4344602;33;20515;-40
2021/03/25 08:50:33;;;;;;;6.62;4.40;;;15.20;27.90;;;;;;4346221;32;20565;-42
2021/03/25 08:53:13;;;;;;;6.45;2.58;;;15.30;27.60;;;;;;4346043;32;20069;-42
2021/03/25 08:55:40;;;;;;;7.55;2.67;;;15.40;27.30;;;;;;4344189;33;20483;-42
2021/03/25 08:58:22;;;;;;;5.20;3.45;;;15.40;27.50;;;;;;4346015;32;20160;-42
2021/03/25 09:00:53;;;;;;;6.25;2.87;;;15.50;27.30;;;;;;4344802;33;20152;-42
2021/03/25 09:03:41;;;;;;;10.32;3.78;;;15.60;26.80;;;;;;4345980;32;20063;-42
2021/03/25 09:06:16;;;;;;;7.78;2.80;;;15.70;26.50;;;;;;4321136;33;20071;-42
2021/03/25 09:08:43;;;;;;;3.85;2.80;;;15.70;26.70;;;;;;4344343;33;20118;-41
2021/03/25 09:11:13;;;;;;;3.60;1.85;;;15.60;26.30;;;;;;4331835;33;20055;-42
2021/03/25 09:14:00;;;;;;;5.12;2.80;;;15.50;25.90;;;;;;4330646;33;20109;-43
2021/03/25 09:16:33;;;;;;;4.45;1.77;;;15.40;26.20;;;;;;4343464;33;20566;-41
2021/03/25 09:19:04;;;;;;;7.53;3.10;;;15.50;26.70;;;;;;4330186;33;20097;-41
2021/03/25 09:21:32;;;;;;;4.18;2.95;;;15.30;26.60;;;;;;4330712;33;20122;-42
2021/03/25 09:24:03;;;;;;;4.05;2.47;;;15.20;26.00;;;;;;4330410;33;20078;-41
2021/03/25 09:26:30;;;;;;;2.50;2.15;;;15.10;26.30;;;;;;4342701;33;20071;-42
2021/03/25 09:29:01;;;;;;;7.12;2.90;;;15.00;27.00;;;;;;4342580;33;20087;-41
2021/03/25 09:31:33;;;;;;;4.82;2.37;;;15.00;26.60;;;;;;4343263;33;20495;-40
2021/03/25 09:34:11;;;;;;;6.15;3.75;;;15.00;26.40;;;;;;4315664;33;20094;-42
2021/03/25 09:36:47;;;;;;;4.50;2.00;;;15.00;26.70;;;;;;4328105;33;20590;-41
2021/03/25 09:39:26;;;;;;;2.05;1.52;;;15.00;26.60;;;;;;4315886;33;20083;-41
2021/03/25 09:41:53;;;;;;;4.40;2.17;;;15.00;26.80;;;;;;4316699;33;20483;-42
2021/03/25 09:44:38;;;;;;;3.03;1.98;;;15.00;26.60;;;;;;4308636;33;20144;-42
2021/03/25 09:47:36;;;;;;;2.97;1.73;;;15.00;27.10;;;;;;4316918;33;20067;-40
2021/03/25 09:50:03;;;;;;;4.32;2.15;;;15.10;27.10;;;;;;4305112;33;20069;-42
2021/03/25 09:52:36;;;;;;;4.40;2.75;;;15.20;26.90;;;;;;4327980;33;20079;-41
2021/03/25 09:55:02;;;;;;;2.62;1.17;;;15.20;27.10;;;;;;4315761;33;20067;-41
2021/03/25 09:57:29;;;;;;;8.80;4.12;;;15.30;27.40;;;;;;4327680;33;20165;-41
2021/03/25 10:00:42;;;;;;;6.78;3.15;;;15.20;26.80;;;;;;4327889;33;20067;-43
2021/03/25 10:03:14;;;;;;;6.25;2.55;;;15.10;26.70;;;;;;4327235;33;20084;-42
2021/03/25 10:05:42;;;;;;;4.62;2.37;;;15.20;26.90;;;;;;4340993;33;20067;-40
2021/03/25 10:08:12;;;;;;;4.12;2.22;;;15.20;26.90;;;;;;4331280;33;20523;-42
2021/03/25 10:10:57;;;;;;;3.58;1.77;;;15.10;26.70;;;;;;4345171;33;20090;-42
2021/03/25 10:13:29;;;;;;;4.95;2.87;;;15.20;27.10;;;;;;4332059;33;20141;-41
2021/03/25 10:16:30;;;;;;;3.47;1.83;;;15.20;26.40;;;;;;4344720;33;20180;-42
2021/03/25 10:18:59;;;;;;;4.03;2.65;;;15.10;26.70;;;;;;4344769;32;20102;-42
2021/03/25 10:21:59;;;;;;;6.82;4.22;;;15.10;26.70;;;;;;4344872;33;20153;-41
2021/03/25 10:24:39;;;;;;;4.47;2.65;;;15.10;27.10;;;;;;4344600;33;20172;-41
2021/03/25 10:27:42;;;;;;;6.72;1.27;;;15.00;26.80;;;;;;4343301;33;20063;-41
2021/03/25 10:30:29;;;;;;;7.32;2.35;;;14.90;27.00;;;;;;4344183;33;20071;-42
2021/03/25 10:32:57;;;;;;;4.18;2.20;;;15.00;27.60;;;;;;4320876;33;20064;-44
2021/03/25 10:35:29;;;;;;;4.20;2.90;;;14.90;27.40;;;;;;4343352;33;20074;-41
2021/03/25 10:37:59;;;;;;;7.95;2.87;;;14.90;28.10;;;;;;4330946;33;20151;-41
2021/03/25 10:40:40;;;;;;;6.20;2.75;;;15.00;27.90;;;;;;4343060;33;20086;-42
2021/03/25 10:43:27;;;;;;;3.53;1.92;;;15.10;27.30;;;;;;4344297;33;20685;-41
2021/03/25 10:46:00;;;;;;;4.62;1.75;;;15.10;27.80;;;;;;4344216;33;20083;-40
2021/03/25 10:48:42;;;;;;;3.85;2.50;;;15.10;27.90;;;;;;4353743;32;20074;-42
2021/03/25 10:51:21;;;;;;;6.72;3.12;;;15.10;27.60;;;;;;4359372;32;20066;-42
2021/03/25 10:53:52;;;;;;;4.65;2.75;;;15.10;27.80;;;;;;4359294;32;20558;-40
2021/03/25 10:56:38;;;;;;;2.90;1.92;;;15.10;27.60;;;;;;4345770;32;20063;-39
2021/03/25 10:59:07;;;;;;;;;;;15.00;27.40;;;;;;4357494;32;20073;-41
2021/03/25 11:01:35;;;;;;;3.78;2.62;;;15.00;27.90;;;;;;4357823;32;19957;-41
2021/03/25 11:04:16;;;;;;;6.68;4.12;;;15.00;27.90;;;;;;4358916;32;20070;-40
2021/03/25 11:06:42;;;;;;;7.62;3.58;;;15.10;28.40;;;;;;4359041;32;20078;-40
2021/03/25 11:09:14;;;;;;;6.12;3.42;;;15.10;27.90;;;;;;4358585;32;20055;-41
2021/03/25 11:11:40;;;;;;;10.50;3.85;;;15.10;27.90;;;;;;4345537;32;20150;-41
2021/03/25 11:14:18;;;;;;;6.00;3.42;;;15.00;28.10;;;;;;4357403;32;20097;-41
2021/03/25 11:17:30;;;;;;;5.28;3.03;;;15.00;28.10;;;;;;4359077;32;20065;-41
2021/03/25 11:20:05;;;;;;;9.93;3.40;;;15.00;27.90;;;;;;4357403;32;20058;-42
2021/03/25 11:22:33;;;;;;;5.22;3.08;;;15.00;28.00;;;;;;4359169;32;20078;-41
2021/03/25 11:25:06;;;;;;;9.40;3.15;;;15.00;28.20;;;;;;4357748;32;20155;-40
2021/03/25 11:27:33;;;;;;;7.87;4.35;;;14.90;28.20;;;;;;4357034;32;20147;-41
2021/03/25 11:30:17;;;;;;;5.62;2.50;;;14.80;28.30;;;;;;4343868;32;20089;-41
2021/03/25 11:32:45;;;;;;;3.97;2.37;;;14.70;28.20;;;;;;4344066;32;20086;-39
2021/03/25 11:35:38;;;;;;;8.55;3.78;;;14.50;28.10;;;;;;4356205;32;20149;-40
2021/03/25 11:38:26;;;;;;;5.57;3.90;;;14.40;28.90;;;;;;4356321;32;20157;-41
2021/03/25 11:41:20;;;;;;;4.30;2.22;;;14.30;28.40;;;;;;4355974;32;20607;-39
2021/03/25 11:44:05;;;;;;;4.62;2.42;;;14.20;29.10;;;;;;4345488;32;20074;-41
2021/03/25 11:46:33;;;;;;;7.97;5.15;;;14.10;28.90;;;;;;4356402;32;20078;-40
2021/03/25 11:49:17;;;;;;;5.80;3.55;;;14.00;28.90;;;;;;4343767;32;20619;-40
2021/03/25 11:51:59;;;;;;;5.32;2.17;;;14.00;29.20;;;;;;4328718;33;20059;-40
2021/03/25 11:54:32;;;;;;;7.40;3.62;;;14.00;29.10;;;;;;4316792;33;20067;-40
2021/03/25 11:57:21;;;;;;;4.50;2.80;;;14.00;28.90;;;;;;4329685;33;20054;-40
2021/03/25 11:59:47;;;;;;;13.38;4.78;;;14.10;29.00;;;;;;4340927;33;20546;-40
2021/03/25 12:02:20;;;;;;;4.82;2.58;;;14.10;28.90;;;;;;4329821;33;20537;-40
2021/03/25 12:04:48;;;;;;;1.85;1.00;;;14.10;28.60;;;;;;4343444;32;20094;-39
2021/03/25 12:07:16;;;;;;;3.45;1.90;;;14.10;28.70;;;;;;4341677;33;20168;-41
2021/03/25 12:10:11;;;;;;;8.98;2.33;;;14.10;28.90;;;;;;4325128;33;20079;-41
2021/03/25 12:12:38;;;;;;;5.35;2.70;;;14.10;28.90;;;;;;4315011;33;20079;-41
2021/03/25 12:15:05;;;;;;;5.68;2.35;;;14.10;28.70;;;;;;4313696;33;20121;-39
2021/03/25 12:17:32;;;;;;;3.37;1.48;;;14.20;28.90;;;;;;4326018;33;20078;-40
2021/03/25 12:19:58;;;;;;;6.25;3.75;;;14.30;28.80;;;;;;4313466;33;20261;-41
2021/03/25 12:22:30;;;;;;;5.90;3.75;;;14.30;27.20;;;;;;4313784;33;20598;-40
2021/03/25 12:24:57;;;;;;;4.87;2.85;;;14.20;26.80;;;;;;4313967;33;20105;-38
2021/03/25 12:27:27;;;;;;;5.53;1.42;;;14.00;27.30;;;;;;4313778;33;20051;-40
2021/03/25 12:29:54;;;;;;;1.90;1.37;;;13.90;28.40;;;;;;4325901;33;20230;-39
2021/03/25 12:32:23;;;;;;;5.93;3.17;;;13.90;28.80;;;;;;4313690;33;20066;-39
2021/03/25 12:34:50;;;;;;;3.03;1.70;;;13.90;28.70;;;;;;4325903;33;20586;-40
2021/03/25 12:37:17;;;;;;;5.18;2.45;;;13.90;28.90;;;;;;4301701;33;20159;-41
2021/03/25 12:39:43;;;;;;;5.95;3.33;;;13.90;28.90;;;;;;4313675;33;20071;-40
2021/03/25 12:42:13;;;;;;;3.85;1.73;;;13.80;29.10;;;;;;4325639;33;20075;-40
2021/03/25 12:44:40;;;;;;;5.22;2.40;;;13.70;29.20;;;;;;4301793;33;20155;-39
2021/03/25 12:47:08;;;;;;;2.00;1.12;;;13.80;29.00;;;;;;4326647;32;20063;-38
2021/03/25 12:49:34;;;;;;;4.35;2.05;;;13.90;29.10;;;;;;4358077;32;20597;-40
2021/03/25 12:52:01;;;;;;;7.18;3.00;;;13.90;29.10;;;;;;4357792;32;20085;-41
2021/03/25 12:54:27;;;;;;;2.85;1.40;;;13.90;28.90;;;;;;4357707;32;20058;-40
2021/03/25 12:56:59;;;;;;;1.52;1.02;;;14.00;28.90;;;;;;4357868;32;20058;-39
2021/03/25 12:59:26;;;;;;;4.57;1.55;;;14.00;29.20;;;;;;4343707;32;20648;-39
2021/03/25 13:01:53;;;;;;;3.05;1.98;;;14.00;28.70;;;;;;4357755;32;20111;-40
2021/03/25 13:04:20;;;;;;;2.60;1.52;;;14.00;28.80;;;;;;4358222;32;20117;-39
2021/03/25 13:06:48;;;;;;;1.98;1.00;;;14.00;28.70;;;;;;4357902;32;20075;-39
2021/03/25 13:09:14;;;;;;;1.42;0.70;;;14.00;28.50;;;;;;4357505;32;20066;-40
2021/03/25 13:11:41;;;;;;;2.87;1.37;;;14.00;28.70;;;;;;4356121;32;20147;-40
2021/03/25 13:14:07;;;;;;;4.43;1.23;;;14.00;28.50;;;;;;4356130;32;20077;-39
2021/03/25 13:16:34;;;;;;;1.33;0.98;;;14.00;28.80;;;;;;4358242;32;20051;-39
2021/03/25 13:19:00;;;;;;;3.55;1.42;;;14.00;28.90;;;;;;4356307;32;20176;-39
2021/03/25 13:21:27;;;;;;;5.12;1.50;;;14.00;28.80;;;;;;4327325;33;20075;-39
2021/03/25 13:23:54;;;;;;;3.67;1.40;;;14.00;28.70;;;;;;4327982;33;20074;-39
2021/03/25 13:26:20;;;;;;;5.82;1.80;;;14.00;28.80;;;;;;4315917;33;20079;-39
2021/03/25 13:28:47;;;;;;;3.08;2.28;;;14.00;28.70;;;;;;4328368;33;20075;-39
2021/03/25 13:31:14;;;;;;;4.62;2.45;;;14.00;28.90;;;;;;4327960;33;20094;-39
2021/03/25 13:33:41;;;;;;;4.85;1.33;;;13.90;28.80;;;;;;4315751;33;20083;-40
2021/03/25 13:36:08;;;;;;;6.22;1.95;;;13.90;28.80;;;;;;4316051;33;20067;-41